AKX571 RJTT-RJCW
Flight info
| Callsign | AKX571 |
|---|---|
| Flight time | 1h 34m |
| Altitude | 37000 |
| Route | BRUCE AGRIS Y11 CHE Y10 YOROI |
| Aircraft | B738/M-SDE2E3FGHIRWXY/LB1 |
Departure
| Time | 2026-05-05 02:14 |
|---|---|
| Airport | Tokyo Haneda International Airport (RJTT) |
Arrival
| Time | 2026-05-05 03:48 |
|---|---|
| Airport | Wakkanai Airport (RJCW) |
| Time | Latitude | Longitude | Altitude | Speed | Heading |
|---|---|---|---|---|---|
| 2026-05-05 01:35 | 35.55702 | 139.78519 | 26 ft | 0 kts | 240° |
| 2026-05-05 01:59 | 35.55708 | 139.78531 | 23 ft | 2 kts | 240° |
| 2026-05-05 01:59 | 35.55716 | 139.78549 | 27 ft | 2 kts | 240° |
| 2026-05-05 01:59 | 35.55724 | 139.78566 | 27 ft | 2 kts | 240° |
| 2026-05-05 01:59 | 35.55733 | 139.78583 | 26 ft | 2 kts | 206° |
| 2026-05-05 02:00 | 35.55748 | 139.78591 | 23 ft | 2 kts | 198° |
| 2026-05-05 02:00 | 35.55764 | 139.78596 | 25 ft | 2 kts | 190° |
| 2026-05-05 02:00 | 35.55780 | 139.78598 | 24 ft | 2 kts | 180° |
| 2026-05-05 02:00 | 35.55791 | 139.78598 | 24 ft | 0 kts | 161° |
| 2026-05-05 02:04 | 35.55785 | 139.78602 | 25 ft | 3 kts | 152° |
| 2026-05-05 02:05 | 35.55755 | 139.78623 | 26 ft | 7 kts | 150° |
| 2026-05-05 02:05 | 35.55705 | 139.78660 | 25 ft | 10 kts | 149° |
| 2026-05-05 02:05 | 35.55656 | 139.78722 | 23 ft | 11 kts | 105° |
| 2026-05-05 02:05 | 35.55680 | 139.78815 | 24 ft | 12 kts | 60° |
| 2026-05-05 02:06 | 35.55680 | 139.78911 | 24 ft | 12 kts | 130° |
| 2026-05-05 02:06 | 35.55610 | 139.78967 | 23 ft | 13 kts | 150° |
| 2026-05-05 02:06 | 35.55518 | 139.79032 | 23 ft | 18 kts | 150° |
| 2026-05-05 02:06 | 35.55395 | 139.79116 | 23 ft | 22 kts | 149° |
| 2026-05-05 02:07 | 35.55259 | 139.79213 | 23 ft | 23 kts | 148° |
| 2026-05-05 02:07 | 35.55122 | 139.79312 | 23 ft | 23 kts | 150° |
| 2026-05-05 02:07 | 35.54990 | 139.79407 | 23 ft | 22 kts | 149° |
| 2026-05-05 02:07 | 35.54859 | 139.79500 | 23 ft | 21 kts | 150° |
| 2026-05-05 02:08 | 35.54733 | 139.79590 | 23 ft | 21 kts | 150° |
| 2026-05-05 02:08 | 35.54609 | 139.79675 | 23 ft | 20 kts | 151° |
| 2026-05-05 02:08 | 35.54489 | 139.79759 | 23 ft | 19 kts | 149° |
| 2026-05-05 02:08 | 35.54374 | 139.79842 | 24 ft | 19 kts | 151° |
| 2026-05-05 02:09 | 35.54262 | 139.79920 | 23 ft | 18 kts | 148° |
| 2026-05-05 02:09 | 35.54156 | 139.80001 | 23 ft | 18 kts | 147° |
| 2026-05-05 02:09 | 35.54051 | 139.80073 | 23 ft | 17 kts | 151° |
| 2026-05-05 02:09 | 35.53944 | 139.80148 | 24 ft | 19 kts | 149° |
| 2026-05-05 02:10 | 35.53818 | 139.80182 | 25 ft | 19 kts | 196° |
| 2026-05-05 02:10 | 35.53688 | 139.80190 | 23 ft | 19 kts | 171° |
| 2026-05-05 02:10 | 35.53571 | 139.80249 | 23 ft | 18 kts | 149° |
| 2026-05-05 02:10 | 35.53466 | 139.80324 | 23 ft | 17 kts | 150° |
| 2026-05-05 02:11 | 35.53353 | 139.80404 | 23 ft | 20 kts | 149° |
| 2026-05-05 02:11 | 35.53220 | 139.80499 | 23 ft | 24 kts | 150° |
| 2026-05-05 02:11 | 35.53065 | 139.80607 | 22 ft | 27 kts | 150° |
| 2026-05-05 02:11 | 35.52922 | 139.80625 | 23 ft | 22 kts | 221° |
| 2026-05-05 02:12 | 35.52848 | 139.80542 | 24 ft | 22 kts | 223° |
| 2026-05-05 02:12 | 35.52637 | 139.80306 | 23 ft | 16 kts | 220° |
| 2026-05-05 02:12 | 35.52555 | 139.80224 | 22 ft | 15 kts | 198° |
| 2026-05-05 02:13 | 35.52470 | 139.80280 | 25 ft | 14 kts | 131° |
| 2026-05-05 02:13 | 35.52447 | 139.80388 | 23 ft | 14 kts | 60° |
| 2026-05-05 02:13 | 35.52604 | 139.80572 | 24 ft | 70 kts | 42° |
| 2026-05-05 02:13 | 35.53178 | 139.81218 | 46 ft | 148 kts | 41° |
| 2026-05-05 02:14 | 35.54006 | 139.82221 | 570 ft | 183 kts | 42° |
| 2026-05-05 02:14 | 35.54822 | 139.83465 | 1462 ft | 197 kts | 57° |
| 2026-05-05 02:14 | 35.55535 | 139.84958 | 2239 ft | 211 kts | 54° |
| 2026-05-05 02:14 | 35.56324 | 139.86426 | 3053 ft | 203 kts | 54° |
| 2026-05-05 02:15 | 35.57036 | 139.87925 | 3725 ft | 205 kts | 57° |
| 2026-05-05 02:15 | 35.57754 | 139.89482 | 4227 ft | 214 kts | 56° |
| 2026-05-05 02:15 | 35.58510 | 139.91080 | 4725 ft | 223 kts | 56° |
| 2026-05-05 02:15 | 35.59319 | 139.92760 | 5249 ft | 234 kts | 56° |
| 2026-05-05 02:16 | 35.60186 | 139.94525 | 5738 ft | 248 kts | 53° |
| 2026-05-05 02:16 | 35.61470 | 139.95891 | 6436 ft | 245 kts | 18° |
| 2026-05-05 02:16 | 35.63131 | 139.96230 | 7218 ft | 243 kts | 0° |
| 2026-05-05 02:16 | 35.64837 | 139.96323 | 7973 ft | 247 kts | 0° |
| 2026-05-05 02:17 | 35.66543 | 139.96413 | 8730 ft | 250 kts | 0° |
| 2026-05-05 02:17 | 35.68318 | 139.96515 | 9537 ft | 253 kts | 0° |
| 2026-05-05 02:17 | 35.70061 | 139.96623 | 10290 ft | 255 kts | 0° |
| 2026-05-05 02:17 | 35.71861 | 139.96737 | 10871 ft | 265 kts | 360° |
| 2026-05-05 02:18 | 35.73736 | 139.96738 | 11359 ft | 273 kts | 347° |
| 2026-05-05 02:18 | 35.75551 | 139.96012 | 11882 ft | 276 kts | 337° |
| 2026-05-05 02:18 | 35.77303 | 139.95167 | 12354 ft | 273 kts | 336° |
| 2026-05-05 02:18 | 35.79038 | 139.94332 | 12866 ft | 272 kts | 336° |
| 2026-05-05 02:19 | 35.80796 | 139.93493 | 13372 ft | 271 kts | 336° |
| 2026-05-05 02:19 | 35.82558 | 139.92656 | 13896 ft | 272 kts | 336° |
| 2026-05-05 02:19 | 35.84362 | 139.91802 | 14404 ft | 281 kts | 336° |
| 2026-05-05 02:19 | 35.86220 | 139.90926 | 14886 ft | 291 kts | 336° |
| 2026-05-05 02:20 | 35.88160 | 139.90011 | 15172 ft | 308 kts | 336° |
| 2026-05-05 02:20 | 35.90208 | 139.89045 | 15183 ft | 318 kts | 336° |
| 2026-05-05 02:20 | 35.92280 | 139.88072 | 15203 ft | 317 kts | 336° |
| 2026-05-05 02:20 | 35.94286 | 139.87130 | 15598 ft | 308 kts | 336° |
| 2026-05-05 02:21 | 35.96301 | 139.86181 | 16267 ft | 311 kts | 336° |
| 2026-05-05 02:21 | 35.98420 | 139.85564 | 16954 ft | 320 kts | 353° |
| 2026-05-05 02:21 | 36.00657 | 139.85815 | 17685 ft | 329 kts | 8° |
| 2026-05-05 02:21 | 36.02823 | 139.86702 | 18433 ft | 333 kts | 14° |
| 2026-05-05 02:22 | 36.04996 | 139.87742 | 19086 ft | 334 kts | 14° |
| 2026-05-05 02:22 | 36.07158 | 139.88799 | 19740 ft | 334 kts | 14° |
| 2026-05-05 02:22 | 36.09318 | 139.89845 | 20408 ft | 333 kts | 13° |
| 2026-05-05 02:22 | 36.11486 | 139.90880 | 20995 ft | 336 kts | 13° |
| 2026-05-05 02:23 | 36.13676 | 139.91912 | 21550 ft | 338 kts | 12° |
| 2026-05-05 02:23 | 36.15881 | 139.92946 | 22114 ft | 340 kts | 12° |
| 2026-05-05 02:23 | 36.18101 | 139.93986 | 22693 ft | 342 kts | 12° |
| 2026-05-05 02:23 | 36.20354 | 139.94871 | 23255 ft | 333 kts | 358° |
| 2026-05-05 02:24 | 36.22606 | 139.94927 | 23833 ft | 322 kts | 348° |
| 2026-05-05 02:24 | 36.24846 | 139.94827 | 24147 ft | 329 kts | 348° |
| 2026-05-05 02:24 | 36.27150 | 139.94721 | 24504 ft | 334 kts | 348° |
| 2026-05-05 02:24 | 36.29498 | 139.94627 | 24856 ft | 340 kts | 348° |
| 2026-05-05 02:25 | 36.31889 | 139.94544 | 25249 ft | 345 kts | 348° |
| 2026-05-05 02:25 | 36.34278 | 139.94471 | 25613 ft | 349 kts | 348° |
| 2026-05-05 02:25 | 36.36724 | 139.94401 | 25976 ft | 354 kts | 348° |
| 2026-05-05 02:25 | 36.39199 | 139.94330 | 26349 ft | 358 kts | 347° |
| 2026-05-05 02:26 | 36.41707 | 139.94258 | 26724 ft | 362 kts | 347° |
| 2026-05-05 02:26 | 36.44250 | 139.94262 | 27099 ft | 368 kts | 349° |
| 2026-05-05 02:26 | 36.46833 | 139.94363 | 27459 ft | 374 kts | 350° |
| 2026-05-05 02:26 | 36.49459 | 139.94493 | 27719 ft | 381 kts | 350° |
| 2026-05-05 02:27 | 36.52131 | 139.94629 | 28015 ft | 387 kts | 351° |
| 2026-05-05 02:27 | 36.54838 | 139.94763 | 28287 ft | 392 kts | 351° |
| 2026-05-05 02:27 | 36.57596 | 139.94892 | 28565 ft | 398 kts | 351° |
| 2026-05-05 02:27 | 36.60378 | 139.95017 | 28846 ft | 403 kts | 351° |
| 2026-05-05 02:28 | 36.63201 | 139.95141 | 29120 ft | 408 kts | 351° |
| 2026-05-05 02:28 | 36.66062 | 139.95265 | 29401 ft | 413 kts | 351° |
| 2026-05-05 02:28 | 36.68909 | 139.95388 | 29681 ft | 417 kts | 350° |
| 2026-05-05 02:28 | 36.71865 | 139.95516 | 29992 ft | 421 kts | 351° |
| 2026-05-05 02:29 | 36.74808 | 139.95644 | 30273 ft | 425 kts | 351° |
| 2026-05-05 02:29 | 36.77738 | 139.95772 | 30503 ft | 429 kts | 351° |
| 2026-05-05 02:29 | 36.80739 | 139.95903 | 30755 ft | 432 kts | 351° |
| 2026-05-05 02:29 | 36.83752 | 139.96034 | 30994 ft | 435 kts | 351° |
| 2026-05-05 02:30 | 36.86790 | 139.96173 | 31236 ft | 440 kts | 352° |
| 2026-05-05 02:30 | 36.89887 | 139.96635 | 31505 ft | 454 kts | 0° |
| 2026-05-05 02:30 | 36.93003 | 139.97470 | 31796 ft | 459 kts | 2° |
| 2026-05-05 02:30 | 36.96129 | 139.98364 | 32018 ft | 462 kts | 2° |
| 2026-05-05 02:31 | 36.99276 | 139.99230 | 32274 ft | 463 kts | 1° |
| 2026-05-05 02:31 | 37.02426 | 140.00056 | 32531 ft | 464 kts | 0° |
| 2026-05-05 02:31 | 37.05599 | 140.00863 | 32787 ft | 465 kts | 0° |
| 2026-05-05 02:31 | 37.08780 | 140.01675 | 33048 ft | 467 kts | 0° |
| 2026-05-05 02:32 | 37.11927 | 140.02471 | 33301 ft | 467 kts | 0° |
| 2026-05-05 02:32 | 37.15113 | 140.03269 | 33554 ft | 465 kts | 0° |
| 2026-05-05 02:32 | 37.18268 | 140.04092 | 34000 ft | 462 kts | 0° |
| 2026-05-05 02:32 | 37.21398 | 140.04933 | 34347 ft | 459 kts | 0° |
| 2026-05-05 02:33 | 37.24518 | 140.05758 | 34685 ft | 456 kts | 0° |
| 2026-05-05 02:33 | 37.27615 | 140.06564 | 35026 ft | 453 kts | 360° |
| 2026-05-05 02:33 | 37.30696 | 140.07373 | 35424 ft | 450 kts | 0° |
| 2026-05-05 02:33 | 37.33746 | 140.08161 | 35751 ft | 446 kts | 360° |
| 2026-05-05 02:34 | 37.36780 | 140.08938 | 36059 ft | 444 kts | 359° |
| 2026-05-05 02:34 | 37.39815 | 140.09719 | 36286 ft | 444 kts | 359° |
| 2026-05-05 02:34 | 37.42838 | 140.10503 | 36539 ft | 443 kts | 360° |
| 2026-05-05 02:34 | 37.45814 | 140.11276 | 36768 ft | 442 kts | 359° |
| 2026-05-05 02:35 | 37.48825 | 140.12060 | 37015 ft | 441 kts | 359° |
| 2026-05-05 02:35 | 37.51829 | 140.12842 | 37222 ft | 441 kts | 360° |
| 2026-05-05 02:35 | 37.54858 | 140.13626 | 37187 ft | 447 kts | 360° |
| 2026-05-05 02:36 | 37.61036 | 140.15238 | 37204 ft | 459 kts | 0° |
| 2026-05-05 02:36 | 37.67373 | 140.16873 | 37192 ft | 470 kts | 0° |
| 2026-05-05 02:37 | 37.73854 | 140.18581 | 37227 ft | 482 kts | 1° |
| 2026-05-05 02:37 | 37.80486 | 140.20327 | 37210 ft | 490 kts | 1° |
| 2026-05-05 02:38 | 37.87147 | 140.22086 | 37200 ft | 494 kts | 1° |
| 2026-05-05 02:38 | 37.93850 | 140.23876 | 37214 ft | 488 kts | 1° |
| 2026-05-05 02:39 | 38.00423 | 140.25609 | 37187 ft | 478 kts | 0° |
| 2026-05-05 02:39 | 38.06945 | 140.27298 | 37187 ft | 478 kts | 1° |
| 2026-05-05 02:40 | 38.13449 | 140.29008 | 37185 ft | 476 kts | 1° |
| 2026-05-05 02:40 | 38.19910 | 140.30739 | 37165 ft | 477 kts | 1° |
| 2026-05-05 02:41 | 38.26410 | 140.32469 | 37159 ft | 477 kts | 1° |
| 2026-05-05 02:41 | 38.32929 | 140.34205 | 37169 ft | 478 kts | 1° |
| 2026-05-05 02:42 | 38.39417 | 140.35937 | 37164 ft | 481 kts | 2° |
| 2026-05-05 02:42 | 38.45958 | 140.37942 | 37163 ft | 485 kts | 4° |
| 2026-05-05 02:43 | 38.52501 | 140.40111 | 37162 ft | 486 kts | 5° |
| 2026-05-05 02:43 | 38.59073 | 140.42274 | 37165 ft | 487 kts | 4° |
| 2026-05-05 02:44 | 38.65634 | 140.44379 | 37164 ft | 486 kts | 4° |
| 2026-05-05 02:44 | 38.72200 | 140.46495 | 37178 ft | 486 kts | 5° |
| 2026-05-05 02:45 | 38.78729 | 140.48557 | 37194 ft | 482 kts | 4° |
| 2026-05-05 02:45 | 38.85230 | 140.50722 | 37138 ft | 480 kts | 5° |
| 2026-05-05 02:45 | 38.88441 | 140.51682 | 37177 ft | 469 kts | 1° |
| 2026-05-05 02:46 | 38.91589 | 140.52696 | 37212 ft | 478 kts | 7° |
| 2026-05-05 02:46 | 38.98031 | 140.54888 | 37183 ft | 481 kts | 4° |
| 2026-05-05 02:47 | 39.04554 | 140.56980 | 37134 ft | 481 kts | 5° |
| 2026-05-05 02:47 | 39.11041 | 140.59106 | 37186 ft | 481 kts | 5° |
| 2026-05-05 02:48 | 39.17537 | 140.61274 | 37151 ft | 480 kts | 5° |
| 2026-05-05 02:48 | 39.24010 | 140.63307 | 37188 ft | 479 kts | 6° |
| 2026-05-05 02:49 | 39.30432 | 140.65466 | 37150 ft | 479 kts | 6° |
| 2026-05-05 02:49 | 39.36871 | 140.67639 | 37154 ft | 478 kts | 6° |
| 2026-05-05 02:50 | 39.43316 | 140.69751 | 37133 ft | 475 kts | 5° |
| 2026-05-05 02:50 | 39.49704 | 140.71857 | 37155 ft | 473 kts | 6° |
| 2026-05-05 02:51 | 39.56071 | 140.73999 | 37158 ft | 472 kts | 6° |
| 2026-05-05 02:51 | 39.62440 | 140.76105 | 37128 ft | 471 kts | 5° |
| 2026-05-05 02:52 | 39.68754 | 140.78171 | 37121 ft | 470 kts | 6° |
| 2026-05-05 02:52 | 39.75092 | 140.80302 | 37138 ft | 470 kts | 6° |
| 2026-05-05 02:53 | 39.81413 | 140.82403 | 37139 ft | 469 kts | 6° |
| 2026-05-05 02:53 | 39.87720 | 140.84470 | 37128 ft | 467 kts | 6° |
| 2026-05-05 02:54 | 39.94017 | 140.86626 | 37083 ft | 467 kts | 6° |
| 2026-05-05 02:54 | 40.00299 | 140.88731 | 37128 ft | 467 kts | 6° |
| 2026-05-05 02:55 | 40.06562 | 140.90857 | 37097 ft | 468 kts | 6° |
| 2026-05-05 02:55 | 40.12884 | 140.93009 | 37086 ft | 470 kts | 6° |
| 2026-05-05 02:56 | 40.19220 | 140.95137 | 37091 ft | 470 kts | 6° |
| 2026-05-05 02:56 | 40.25541 | 140.97240 | 37074 ft | 472 kts | 6° |
| 2026-05-05 02:57 | 40.31920 | 140.99316 | 37079 ft | 471 kts | 6° |
| 2026-05-05 02:57 | 40.38284 | 141.01432 | 37103 ft | 472 kts | 6° |
| 2026-05-05 02:58 | 40.44651 | 141.03561 | 37079 ft | 472 kts | 6° |
| 2026-05-05 02:58 | 40.51021 | 141.05688 | 37057 ft | 471 kts | 6° |
| 2026-05-05 02:59 | 40.56291 | 141.07449 | 37059 ft | 470 kts | 6° |
| 2026-05-05 02:59 | 40.62622 | 141.09567 | 37051 ft | 469 kts | 6° |
| 2026-05-05 03:00 | 40.69971 | 141.12027 | 37052 ft | 468 kts | 6° |
| 2026-05-05 03:00 | 40.75206 | 141.13785 | 37050 ft | 466 kts | 6° |
| 2026-05-05 03:01 | 40.81497 | 141.15899 | 37056 ft | 465 kts | 6° |
| 2026-05-05 03:01 | 40.87775 | 141.17706 | 37050 ft | 460 kts | 3° |
| 2026-05-05 03:02 | 40.94059 | 141.19354 | 37048 ft | 459 kts | 4° |
| 2026-05-05 03:02 | 41.00315 | 141.21035 | 37046 ft | 458 kts | 4° |
| 2026-05-05 03:03 | 41.06564 | 141.22754 | 37054 ft | 458 kts | 4° |
| 2026-05-05 03:03 | 41.12768 | 141.24472 | 37057 ft | 457 kts | 4° |
| 2026-05-05 03:04 | 41.19004 | 141.26201 | 37045 ft | 457 kts | 4° |
| 2026-05-05 03:04 | 41.25236 | 141.27931 | 37145 ft | 455 kts | 4° |
| 2026-05-05 03:04 | 41.28319 | 141.28791 | 37568 ft | 449 kts | 4° |
| 2026-05-05 03:05 | 41.31356 | 141.29637 | 37923 ft | 444 kts | 4° |
| 2026-05-05 03:05 | 41.34383 | 141.30480 | 38252 ft | 441 kts | 4° |
| 2026-05-05 03:05 | 41.37374 | 141.31311 | 38583 ft | 438 kts | 4° |
| 2026-05-05 03:05 | 41.40308 | 141.32127 | 38845 ft | 434 kts | 4° |
| 2026-05-05 03:06 | 41.43248 | 141.32945 | 39042 ft | 431 kts | 4° |
| 2026-05-05 03:06 | 41.49169 | 141.34587 | 39059 ft | 437 kts | 4° |
| 2026-05-05 03:07 | 41.55162 | 141.36255 | 39050 ft | 442 kts | 4° |
| 2026-05-05 03:07 | 41.61223 | 141.37950 | 39058 ft | 447 kts | 4° |
| 2026-05-05 03:08 | 41.67343 | 141.39667 | 39036 ft | 452 kts | 4° |
| 2026-05-05 03:08 | 41.73533 | 141.41408 | 39037 ft | 457 kts | 4° |
| 2026-05-05 03:09 | 41.79795 | 141.43172 | 39031 ft | 462 kts | 4° |
| 2026-05-05 03:09 | 41.86075 | 141.44944 | 39045 ft | 466 kts | 5° |
| 2026-05-05 03:10 | 41.92479 | 141.46763 | 39024 ft | 470 kts | 5° |
| 2026-05-05 03:10 | 41.98870 | 141.48564 | 39022 ft | 473 kts | 4° |
| 2026-05-05 03:11 | 42.05336 | 141.50372 | 39016 ft | 475 kts | 4° |
| 2026-05-05 03:11 | 42.11827 | 141.52196 | 39017 ft | 477 kts | 5° |
| 2026-05-05 03:12 | 42.18330 | 141.54021 | 39015 ft | 476 kts | 5° |
| 2026-05-05 03:12 | 42.24817 | 141.55836 | 39004 ft | 475 kts | 4° |
| 2026-05-05 03:13 | 42.31272 | 141.57648 | 38998 ft | 472 kts | 4° |
| 2026-05-05 03:13 | 42.37655 | 141.59444 | 38997 ft | 470 kts | 4° |
| 2026-05-05 03:14 | 42.44049 | 141.61246 | 38999 ft | 468 kts | 4° |
| 2026-05-05 03:14 | 42.50411 | 141.63043 | 38986 ft | 466 kts | 4° |
| 2026-05-05 03:15 | 42.56717 | 141.64828 | 38981 ft | 464 kts | 4° |
| 2026-05-05 03:15 | 42.63050 | 141.66623 | 38980 ft | 464 kts | 4° |
| 2026-05-05 03:16 | 42.69384 | 141.68408 | 38967 ft | 463 kts | 2° |
| 2026-05-05 03:16 | 42.75723 | 141.69061 | 38973 ft | 454 kts | 354° |
| 2026-05-05 03:17 | 42.82043 | 141.69213 | 38971 ft | 455 kts | 353° |
| 2026-05-05 03:17 | 42.88397 | 141.69397 | 38975 ft | 458 kts | 354° |
| 2026-05-05 03:18 | 42.94743 | 141.69643 | 38981 ft | 460 kts | 354° |
| 2026-05-05 03:18 | 43.01145 | 141.69918 | 38967 ft | 461 kts | 354° |
| 2026-05-05 03:19 | 43.10719 | 141.70335 | 38965 ft | 462 kts | 354° |
| 2026-05-05 03:19 | 43.17107 | 141.70610 | 38951 ft | 462 kts | 354° |
| 2026-05-05 03:20 | 43.23494 | 141.70885 | 38947 ft | 461 kts | 354° |
| 2026-05-05 03:20 | 43.26696 | 141.71025 | 38683 ft | 459 kts | 354° |
| 2026-05-05 03:20 | 43.29905 | 141.71164 | 37968 ft | 460 kts | 355° |
| 2026-05-05 03:21 | 43.33116 | 141.71304 | 37330 ft | 460 kts | 355° |
| 2026-05-05 03:21 | 43.36320 | 141.71441 | 36692 ft | 459 kts | 355° |
| 2026-05-05 03:21 | 43.39461 | 141.71576 | 36089 ft | 458 kts | 355° |
| 2026-05-05 03:21 | 43.42637 | 141.71715 | 35468 ft | 453 kts | 355° |
| 2026-05-05 03:22 | 43.45765 | 141.71854 | 34876 ft | 445 kts | 355° |
| 2026-05-05 03:22 | 43.48840 | 141.71990 | 34319 ft | 438 kts | 355° |
| 2026-05-05 03:22 | 43.51865 | 141.72124 | 33706 ft | 431 kts | 355° |
| 2026-05-05 03:22 | 43.54842 | 141.72254 | 33032 ft | 424 kts | 355° |
| 2026-05-05 03:23 | 43.57758 | 141.72380 | 32368 ft | 416 kts | 355° |
| 2026-05-05 03:23 | 43.60605 | 141.72503 | 31715 ft | 408 kts | 355° |
| 2026-05-05 03:23 | 43.63412 | 141.72624 | 31073 ft | 399 kts | 355° |
| 2026-05-05 03:23 | 43.66167 | 141.72745 | 30438 ft | 391 kts | 355° |
| 2026-05-05 03:24 | 43.68847 | 141.72860 | 29804 ft | 382 kts | 354° |
| 2026-05-05 03:24 | 43.71475 | 141.72976 | 29070 ft | 373 kts | 354° |
| 2026-05-05 03:24 | 43.74043 | 141.73090 | 28353 ft | 366 kts | 354° |
| 2026-05-05 03:24 | 43.76568 | 141.73199 | 27705 ft | 359 kts | 353° |
| 2026-05-05 03:25 | 43.79046 | 141.73305 | 27029 ft | 353 kts | 353° |
| 2026-05-05 03:25 | 43.81491 | 141.73409 | 26380 ft | 348 kts | 353° |
| 2026-05-05 03:25 | 43.83898 | 141.73511 | 25732 ft | 345 kts | 354° |
| 2026-05-05 03:25 | 43.86304 | 141.73610 | 25121 ft | 347 kts | 354° |
| 2026-05-05 03:26 | 43.88734 | 141.73709 | 24510 ft | 350 kts | 354° |
| 2026-05-05 03:26 | 43.91174 | 141.73809 | 23913 ft | 352 kts | 354° |
| 2026-05-05 03:26 | 43.93630 | 141.73911 | 23304 ft | 354 kts | 354° |
| 2026-05-05 03:26 | 43.96098 | 141.74013 | 22626 ft | 356 kts | 354° |
| 2026-05-05 03:27 | 43.98560 | 141.74118 | 21954 ft | 358 kts | 354° |
| 2026-05-05 03:27 | 44.01064 | 141.74225 | 21293 ft | 360 kts | 354° |
| 2026-05-05 03:27 | 44.03573 | 141.74334 | 20652 ft | 361 kts | 354° |
| 2026-05-05 03:27 | 44.06092 | 141.74444 | 20039 ft | 362 kts | 355° |
| 2026-05-05 03:28 | 44.08613 | 141.74553 | 19422 ft | 363 kts | 355° |
| 2026-05-05 03:28 | 44.11137 | 141.74662 | 18820 ft | 363 kts | 355° |
| 2026-05-05 03:28 | 44.13665 | 141.74772 | 18225 ft | 363 kts | 355° |
| 2026-05-05 03:28 | 44.16194 | 141.74883 | 17584 ft | 363 kts | 355° |
| 2026-05-05 03:29 | 44.18699 | 141.74995 | 17128 ft | 357 kts | 355° |
| 2026-05-05 03:29 | 44.21169 | 141.75106 | 16670 ft | 353 kts | 355° |
| 2026-05-05 03:29 | 44.23573 | 141.75211 | 16243 ft | 348 kts | 355° |
| 2026-05-05 03:29 | 44.25989 | 141.75317 | 15803 ft | 344 kts | 355° |
| 2026-05-05 03:30 | 44.28373 | 141.75422 | 15364 ft | 341 kts | 355° |
| 2026-05-05 03:30 | 44.30741 | 141.75524 | 14943 ft | 337 kts | 354° |
| 2026-05-05 03:30 | 44.33075 | 141.75626 | 14516 ft | 334 kts | 354° |
| 2026-05-05 03:30 | 44.35398 | 141.75728 | 14126 ft | 332 kts | 354° |
| 2026-05-05 03:31 | 44.37693 | 141.75829 | 13714 ft | 329 kts | 354° |
| 2026-05-05 03:31 | 44.39949 | 141.75926 | 13259 ft | 327 kts | 354° |
| 2026-05-05 03:31 | 44.42217 | 141.76023 | 12803 ft | 325 kts | 354° |
| 2026-05-05 03:31 | 44.44465 | 141.76119 | 12351 ft | 323 kts | 354° |
| 2026-05-05 03:32 | 44.46708 | 141.76216 | 11911 ft | 322 kts | 354° |
| 2026-05-05 03:32 | 44.48943 | 141.76312 | 11483 ft | 321 kts | 355° |
| 2026-05-05 03:32 | 44.51172 | 141.76408 | 11053 ft | 320 kts | 355° |
| 2026-05-05 03:32 | 44.53400 | 141.76504 | 10634 ft | 319 kts | 355° |
| 2026-05-05 03:33 | 44.55631 | 141.76602 | 10193 ft | 319 kts | 355° |
| 2026-05-05 03:33 | 44.57820 | 141.76697 | 9794 ft | 318 kts | 355° |
| 2026-05-05 03:33 | 44.60036 | 141.76796 | 9341 ft | 318 kts | 355° |
| 2026-05-05 03:33 | 44.62244 | 141.76892 | 8886 ft | 317 kts | 355° |
| 2026-05-05 03:34 | 44.64438 | 141.76993 | 8543 ft | 313 kts | 355° |
| 2026-05-05 03:34 | 44.66568 | 141.77096 | 8538 ft | 298 kts | 354° |
| 2026-05-05 03:34 | 44.68592 | 141.77190 | 8516 ft | 285 kts | 354° |
| 2026-05-05 03:34 | 44.70560 | 141.77277 | 8508 ft | 281 kts | 354° |
| 2026-05-05 03:35 | 44.72519 | 141.77358 | 8511 ft | 282 kts | 354° |
| 2026-05-05 03:35 | 44.74491 | 141.77439 | 8518 ft | 283 kts | 354° |
| 2026-05-05 03:35 | 44.76432 | 141.77522 | 8490 ft | 280 kts | 354° |
| 2026-05-05 03:35 | 44.78395 | 141.77608 | 8252 ft | 276 kts | 354° |
| 2026-05-05 03:36 | 44.80278 | 141.77692 | 8043 ft | 272 kts | 354° |
| 2026-05-05 03:36 | 44.82156 | 141.77776 | 7834 ft | 268 kts | 353° |
| 2026-05-05 03:36 | 44.84010 | 141.77858 | 7617 ft | 264 kts | 353° |
| 2026-05-05 03:36 | 44.85830 | 141.77939 | 7412 ft | 260 kts | 353° |
| 2026-05-05 03:37 | 44.87634 | 141.78018 | 7203 ft | 258 kts | 353° |
| 2026-05-05 03:37 | 44.89419 | 141.78095 | 7003 ft | 257 kts | 353° |
| 2026-05-05 03:37 | 44.91181 | 141.78171 | 6804 ft | 256 kts | 353° |
| 2026-05-05 03:37 | 44.92962 | 141.78249 | 6603 ft | 256 kts | 353° |
| 2026-05-05 03:38 | 44.94731 | 141.78328 | 6435 ft | 255 kts | 352° |
| 2026-05-05 03:38 | 44.96505 | 141.78407 | 6233 ft | 254 kts | 352° |
| 2026-05-05 03:38 | 44.98284 | 141.78484 | 5964 ft | 256 kts | 353° |
| 2026-05-05 03:38 | 45.00053 | 141.78561 | 5709 ft | 258 kts | 353° |
| 2026-05-05 03:39 | 45.01851 | 141.78642 | 5460 ft | 259 kts | 353° |
| 2026-05-05 03:39 | 45.03685 | 141.78729 | 5192 ft | 261 kts | 353° |
| 2026-05-05 03:39 | 45.05475 | 141.78819 | 4943 ft | 260 kts | 353° |
| 2026-05-05 03:39 | 45.07278 | 141.78909 | 4678 ft | 259 kts | 352° |
| 2026-05-05 03:40 | 45.09083 | 141.78996 | 4423 ft | 260 kts | 353° |
| 2026-05-05 03:40 | 45.10868 | 141.79086 | 4352 ft | 252 kts | 353° |
| 2026-05-05 03:40 | 45.12600 | 141.79178 | 4325 ft | 247 kts | 353° |
| 2026-05-05 03:40 | 45.14310 | 141.79261 | 4309 ft | 245 kts | 352° |
| 2026-05-05 03:41 | 45.16031 | 141.79339 | 4360 ft | 250 kts | 352° |
| 2026-05-05 03:41 | 45.17787 | 141.79419 | 4363 ft | 256 kts | 353° |
| 2026-05-05 03:41 | 45.19572 | 141.79505 | 4356 ft | 255 kts | 353° |
| 2026-05-05 03:41 | 45.21363 | 141.79593 | 4167 ft | 260 kts | 353° |
| 2026-05-05 03:42 | 45.23165 | 141.79682 | 3900 ft | 255 kts | 353° |
| 2026-05-05 03:42 | 45.24905 | 141.79775 | 3657 ft | 246 kts | 352° |
| 2026-05-05 03:42 | 45.26571 | 141.79861 | 3391 ft | 240 kts | 352° |
| 2026-05-05 03:42 | 45.28246 | 141.80143 | 3099 ft | 246 kts | 13° |
| 2026-05-05 03:43 | 45.29626 | 141.81632 | 3037 ft | 253 kts | 44° |
| 2026-05-05 03:43 | 45.30761 | 141.83423 | 2990 ft | 240 kts | 44° |
| 2026-05-05 03:43 | 45.31864 | 141.85130 | 2970 ft | 227 kts | 44° |
| 2026-05-05 03:43 | 45.32858 | 141.86764 | 2984 ft | 213 kts | 42° |
| 2026-05-05 03:44 | 45.33879 | 141.88304 | 3031 ft | 214 kts | 41° |
| 2026-05-05 03:44 | 45.34887 | 141.89828 | 2991 ft | 207 kts | 43° |
| 2026-05-05 03:44 | 45.35879 | 141.91314 | 3005 ft | 208 kts | 41° |
| 2026-05-05 03:44 | 45.36877 | 141.92801 | 2994 ft | 208 kts | 42° |
| 2026-05-05 03:45 | 45.37968 | 141.94115 | 2911 ft | 206 kts | 21° |
| 2026-05-05 03:45 | 45.39292 | 141.94635 | 2584 ft | 192 kts | 348° |
| 2026-05-05 03:45 | 45.40509 | 141.94224 | 2150 ft | 170 kts | 320° |
| 2026-05-05 03:45 | 45.41430 | 141.93250 | 1667 ft | 161 kts | 302° |
| 2026-05-05 03:46 | 45.42111 | 141.92095 | 1511 ft | 149 kts | 291° |
| 2026-05-05 03:46 | 45.42521 | 141.90808 | 1358 ft | 135 kts | 274° |
| 2026-05-05 03:46 | 45.42645 | 141.89963 | 1266 ft | 128 kts | 263° |
| 2026-05-05 03:46 | 45.42607 | 141.88713 | 1022 ft | 123 kts | 255° |
| 2026-05-05 03:47 | 45.42477 | 141.87472 | 983 ft | 128 kts | 248° |
| 2026-05-05 03:47 | 45.42180 | 141.86242 | 807 ft | 134 kts | 240° |
| 2026-05-05 03:47 | 45.41845 | 141.85039 | 698 ft | 130 kts | 242° |
| 2026-05-05 03:47 | 45.41452 | 141.83852 | 465 ft | 134 kts | 240° |
| 2026-05-05 03:48 | 45.41104 | 141.82649 | 285 ft | 127 kts | 244° |
| 2026-05-05 03:48 | 45.40790 | 141.81480 | 91 ft | 125 kts | 240° |
| 2026-05-05 03:48 | 45.40490 | 141.80383 | 37 ft | 108 kts | 239° |
| 2026-05-05 03:48 | 45.40317 | 141.79780 | 32 ft | 22 kts | 249° |
| 2026-05-05 03:49 | 45.40261 | 141.79596 | 32 ft | 16 kts | 226° |
| 2026-05-05 03:49 | 45.40159 | 141.79611 | 31 ft | 15 kts | 160° |
| 2026-05-05 03:49 | 45.40073 | 141.79668 | 31 ft | 11 kts | 156° |
| 2026-05-05 03:49 | 45.40015 | 141.79700 | 31 ft | 6 kts | 159° |
| 2026-05-05 03:50 | 45.39997 | 141.79710 | 32 ft | 0 kts | 159° |